Flight Track Log - Related Links

Times and Time Zones

All times are in EDT time to prevent confusion due to time zone crossing. See the ACA831 flight status page for this flight to view local times or setup timezone preferences in your user account.

Time Position Orientation Groundspeed Altitude Reporting Facility
EDT Latitude Longitude Course Direction KTS MPH feet Rate Location/Type
Sun 06:25:02 AM 46.2470 6.1230 46° Northeast 171 197 2,000  Level FlightAware ADS-B
Sun 06:25:32 AM 46.2640 6.1480 45° Northeast 174 200 3,400 2,700 Climbing FlightAware ADS-B
Sun 06:25:42 AM 46.2690 6.1560 48° Northeast 170 196 3,800 2,100 Climbing FlightAware ADS-B
Sun 06:26:12 AM 46.2870 6.1820 45° Northeast 186 214 4,800 1,900 Climbing FlightAware ADS-B
Sun 06:26:42 AM 46.3090 6.2140 45° Northeast 229 264 5,700 1,745 Climbing FlightAware ADS-B
Sun 06:27:07 AM 46.3250 6.2380 46° Northeast 245 282 6,400 2,400 Climbing FlightAware ADS-B
Sun 06:27:37 AM 46.3520 6.2790 46° Northeast 268 308 7,900 3,164 Climbing FlightAware ADS-B
Sun 06:28:02 AM 46.3760 6.3110 43° Northeast 274 315 9,300 3,086 Climbing FlightAware ADS-B
Sun 06:28:12 AM 46.3880 6.3180 22° Northeast 275 316 9,700 2,700 Climbing FlightAware ADS-B
Sun 06:28:22 AM 46.4020 6.3200 North 289 333 10,200 2,057 Climbing FlightAware ADS-B
Sun 06:28:47 AM 46.4360 6.3060 344° North 312 359 10,900 2,031 Climbing FlightAware ADS-B
Sun 06:29:27 AM 46.4940 6.2670 335° Northwest 346 398 12,400 2,571 Climbing FlightAware ADS-B
Sun 06:29:57 AM 46.5250 6.2140 310° West 354 407 13,900 3,000 Climbing FlightAware ADS-B
Sun 06:30:37 AM 46.5600 6.1320 302° West 364 419 15,900 2,775 Climbing FlightAware ADS-B
Sun 06:31:17 AM 46.5960 6.0440 301° West 383 441 17,600 2,118 Climbing FlightAware ADS-B
Sun 06:32:02 AM 46.6390 5.9400 301° West 412 474 18,900 2,047 Climbing FlightAware ADS-B
Sun 06:32:42 AM 46.6810 5.8400 302° West 427 491 20,500 2,259 Climbing FlightAware ADS-B
Sun 06:33:27 AM 46.7240 5.7340 301° West 436 502 22,100 2,188 Climbing FlightAware ADS-B
Sun 06:34:07 AM 46.7670 5.6290 301° West 445 512 23,600 2,188 Climbing FlightAware ADS-B
Sun 06:34:52 AM 46.8130 5.5140 300° West 451 519 25,200 2,118 Climbing FlightAware ADS-B
Sun 06:35:32 AM 46.8570 5.4080 301° West 458 527 26,600 1,950 Climbing FlightAware ADS-B
Sun 06:36:12 AM 46.9010 5.2990 301° West 466 536 27,800 1,976 Climbing FlightAware ADS-B
Sun 06:36:57 AM 46.9610 5.1900 309° West 468 539 29,400 2,118 Climbing FlightAware ADS-B
Sun 06:37:37 AM 47.0200 5.0990 314° West 466 536 30,800 1,875 Climbing FlightAware ADS-B
Sun 06:38:17 AM 47.0760 5.0170 315° West 463 533 31,900 1,624 Climbing FlightAware ADS-B
Sun 06:39:02 AM 47.1460 4.9150 315° West 463 533 33,100 1,500 Climbing FlightAware ADS-B
Sun 06:39:37 AM 47.2030 4.8320 315° West 464 534 33,900 720 Climbing FlightAware ADS-B
Sun 06:40:17 AM 47.2590 4.7500 315° West 466 536 34,000 67 Climbing FlightAware ADS-B
Sun 06:41:07 AM 47.3420 4.6280 315° West 468 539 34,000  Level FlightAware ADS-B
Sun 06:41:47 AM 47.4030 4.5380 315° West 473 544 34,000  Level FlightAware ADS-B
Sun 06:42:32 AM 47.4690 4.4390 315° West 477 549 34,000  Level FlightAware ADS-B
Sun 06:43:12 AM 47.5320 4.3440 315° West 479 551 34,000  Level FlightAware ADS-B
Sun 06:43:57 AM 47.6030 4.2380 315° West 481 554 34,000  Level FlightAware ADS-B
Sun 06:44:37 AM 47.6660 4.1430 315° West 482 555 34,000  Level FlightAware ADS-B
Sun 06:45:17 AM 47.7280 4.0500 315° West 483 556 34,000  Level FlightAware ADS-B
Sun 06:46:02 AM 47.7960 3.9460 314° West 482 555 34,000  Level FlightAware ADS-B
Sun 06:46:06 AM 47.8076 3.9288 315° West 484 557 34,000  Level FlightAware ADS-B
Sun 06:46:40 AM 47.8618 3.8462 314° West 483 556 34,000  Level FlightAware ADS-B
Sun 06:47:13 AM 47.9122 3.7691 314° West 482 555 34,000  Level FlightAware ADS-B
Sun 06:47:44 AM 47.9610 3.6941 314° West 483 556 34,000  Level FlightAware ADS-B
Sun 06:48:17 AM 48.0122 3.6154 314° West 483 556 34,000  Level FlightAware ADS-B
Sun 06:48:50 AM 48.0635 3.5362 314° West 482 555 34,000  Level FlightAware ADS-B
Sun 06:49:32 AM 48.1250 3.4410 314° West 483 556 34,000  Level FlightAware ADS-B
Sun 06:50:12 AM 48.1870 3.3450 314° West 481 554 34,000  Level FlightAware ADS-B
Sun 06:50:57 AM 48.2550 3.2390 314° West 480 552 34,000  Level FlightAware ADS-B
Sun 06:51:21 AM 48.2955 3.1753 314° West 479 551 34,000  Level FlightAware ADS-B
Sun 06:51:44 AM 48.3314 3.1190 314° West 478 550 34,000  Level FlightAware ADS-B
Sun 06:51:57 AM 48.3477 3.0873 308° West 480 552 34,000  Level FlightAware ADS-B
Sun 06:52:58 AM 48.3984 2.8983 292° West 479 551 34,000  Level FlightAware ADS-B
Sun 06:53:29 AM 48.4172 2.8006 286° West 479 551 34,000  Level FlightAware ADS-B
Sun 06:54:05 AM 48.4397 2.6851 286° West 480 552 34,000  Level FlightAware ADS-B
Sun 06:54:37 AM 48.4597 2.5838 287° West 481 554 34,000  Level FlightAware ADS-B
Sun 06:55:07 AM 48.4794 2.4858 287° West 482 555 34,000  Level FlightAware ADS-B
Sun 06:55:50 AM 48.5068 2.3485 287° West 483 556 34,000  Level FlightAware ADS-B
Sun 06:56:21 AM 48.5262 2.2493 286° West 485 558 34,000  Level FlightAware ADS-B
Sun 06:56:52 AM 48.5458 2.1492 287° West 486 559 34,000 -1,837 Level FlightAware ADS-B
Sun 06:57:10 AM 48.5575 2.0884 287° West 462 532 32,500  Descending FlightAware UK
Sun 06:57:22 AM 48.5646 2.0518 287° West 486 559 34,000  Climbing FlightAware ADS-B
Sun 06:57:40 AM 48.5771 1.9905 287° West 462 532 32,500  Descending FlightAware UK
Sun 06:57:52 AM 48.5839 1.9517 287° West 486 559 34,000  Climbing FlightAware ADS-B
Sun 06:58:10 AM 48.5958 1.8937 287° West 458 527 32,500  Descending FlightAware UK
Sun 06:58:23 AM 48.6029 1.8518 287° West 487 560 34,000 1,875 Climbing FlightAware ADS-B
Sun 06:58:58 AM 48.6243 1.7377 286° West 487 560 34,000 -1,698 Level FlightAware ADS-B
Sun 06:59:16 AM 48.6357 1.6783 286° West 460 529 32,500  Descending FlightAware UK
Sun 06:59:36 AM 48.6477 1.6141 286° West 487 560 34,000  Climbing FlightAware ADS-B
Sun 06:59:52 AM 48.6576 1.5611 286° West 452 520 32,500  Descending FlightAware UK
Sun 07:00:08 AM 48.6671 1.5103 286° West 487 560 34,000 1,957 Climbing FlightAware ADS-B
Sun 07:00:38 AM 48.6856 1.4103 286° West 488 562 34,000 -1,920 Level FlightAware ADS-B
Sun 07:00:58 AM 48.6975 1.3445 286° West 448 516 32,400  Descending FlightAware UK
Sun 07:01:12 AM 48.7030 1.3160 286° West 489 563 34,000 4,174 Climbing FlightAware ADS-B
Sun 07:01:21 AM 48.7113 1.2705 285° West 490 564 34,000 -3,429 Level FlightAware ADS-B
Sun 07:01:40 AM 48.7230 1.2064 285° West 446 513 32,400  Descending FlightAware UK
Sun 07:01:52 AM 48.7290 1.1710 285° West 492 566 34,000 200 Climbing FlightAware ADS-B
Sun 07:02:10 AM 48.7408 1.1076 285° West 448 516 32,500 -2,500 Descending FlightAware UK
Sun 07:02:28 AM 48.7518 1.0477 285° West 450 518 32,500 4,091 Level FlightAware UK
Sun 07:02:32 AM 48.7530 1.0430 285° West 494 568 34,000  Climbing FlightAware ADS-B
Sun 07:02:52 AM 48.7666 0.9678 285° West 448 516 32,500 -2,368 Descending FlightAware UK
Sun 07:03:10 AM 48.7775 0.9076 285° West 450 518 32,500 3,600 Level FlightAware UK
Sun 07:03:17 AM 48.7800 0.8940 285° West 497 572 34,000  Climbing FlightAware ADS-B
Sun 07:03:34 AM 48.7918 0.8268 285° West 456 525 32,500 -2,571 Descending FlightAware UK
Sun 07:03:52 AM 48.8025 0.7669 285° West 456 525 32,500 3,913 Level FlightAware UK
Sun 07:03:57 AM 48.8030 0.7640 285° West 498 573 34,000  Climbing FlightAware ADS-B
Sun 07:04:28 AM 48.8240 0.6453 285° West 458 527 32,500  Descending FlightAware UK
Sun 07:04:42 AM 48.8320 0.6030 285° West 499 574 34,000  Climbing FlightAware ADS-B
Sun 07:04:58 AM 48.8420 0.5440 285° West 462 532 32,500 -2,727 Descending FlightAware UK
Sun 07:05:15 AM 48.8527 0.4839 285° West 464 534 32,500 3,750 Level FlightAware UK
Sun 07:05:22 AM 48.8550 0.4730 285° West 498 573 34,000  Climbing FlightAware ADS-B
Sun 07:05:57 AM 48.8773 0.3434 285° West 464 534 32,500  Descending FlightAware UK
Sun 07:06:02 AM 48.8790 0.3310 285° West 496 571 34,000  Climbing FlightAware ADS-B
Sun 07:06:33 AM 48.8983 0.2222 285° West 462 532 32,500  Descending FlightAware UK
Sun 07:06:47 AM 48.9040 0.1870 285° West 493 567 34,000 1,667 Climbing FlightAware ADS-B
Sun 07:07:27 AM 48.9270 0.0560 285° West 490 564 34,000 -1,286 Level FlightAware ADS-B
Sun 07:07:57 AM 48.9463 -0.0570 285° West 454 522 32,500  Descending FlightAware UK
Sun 07:08:12 AM 48.9540 -0.1000 285° West 487 560 34,000  Climbing FlightAware ADS-B
Sun 07:08:27 AM 48.9637 -0.1559 285° West 450 518 32,500 -2,909 Descending FlightAware UK
Sun 07:08:45 AM 48.9741 -0.2150 285° West 450 518 32,400 3,600 Descending FlightAware UK
Sun 07:08:52 AM 48.9770 -0.2320 285° West 484 557 34,000 4,364 Climbing FlightAware ADS-B
Sun 07:09:07 AM 48.9870 -0.2855 286° West 488 562 34,000 -1,627 Level FlightAware ADS-B
Sun 07:09:51 AM 49.0125 -0.4299 286° West 448 516 32,400  Descending FlightAware UK
Sun 07:10:17 AM 49.0260 -0.5050 286° West 481 554 34,000 111 Climbing FlightAware ADS-B
Sun 07:10:45 AM 49.0441 -0.6050 286° West 452 520 32,500  Descending FlightAware UK
Sun 07:10:57 AM 49.0500 -0.6360 286° West 479 551 34,000  Climbing FlightAware ADS-B
Sun 07:11:27 AM 49.0688 -0.7411 286° West 448 516 32,500  Descending FlightAware UK
Sun 07:11:42 AM 49.0770 -0.7840 286° West 476 548 34,000 1,636 Climbing FlightAware ADS-B
Sun 07:12:22 AM 49.1010 -0.9140 286° West 475 547 34,000 -1,452 Level FlightAware ADS-B
Sun 07:12:44 AM 49.1152 -0.9917 286° West 448 516 32,500  Descending FlightAware UK
Sun 07:13:02 AM 49.1250 -1.0400 286° West 475 547 34,000  Climbing FlightAware ADS-B
Sun 07:13:26 AM 49.1403 -1.1260 286° West 448 516 32,500 -2,143 Descending FlightAware UK
Sun 07:13:44 AM 49.1511 -1.1836 286° West 448 516 32,500 4,286 Level FlightAware UK
Sun 07:13:47 AM 49.1520 -1.1830 286° West 473 544 34,000  Climbing FlightAware ADS-B
Sun 07:14:02 AM 49.1621 -1.2413 286° West 448 516 32,500 -2,727 Descending FlightAware UK
Sun 07:14:20 AM 49.1707 -1.2998 283° West 448 516 32,500 3,600 Level FlightAware UK
Sun 07:14:27 AM 49.1720 -1.3050 283° West 475 547 34,000  Climbing FlightAware ADS-B
Sun 07:15:02 AM 49.1912 -1.4362 283° West 448 516 32,500  Descending FlightAware UK
Sun 07:15:07 AM 49.1920 -1.4420 283° West 474 545 34,000 -250 Climbing FlightAware ADS-B
Sun 07:15:26 AM 49.2032 -1.5145 283° West 448 516 32,400 -2,432 Descending FlightAware UK
Sun 07:15:44 AM 49.2120 -1.5732 283° West 448 516 32,500 3,692 Climbing FlightAware UK
Sun 07:15:52 AM 49.2140 -1.5870 283° West 472 543 34,000  Climbing FlightAware ADS-B
Sun 07:16:32 AM 49.2356 -1.7286 283° West 448 516 32,500  Descending FlightAware UK
Sun 07:16:32 AM 49.2330 -1.7130 283° West 471 542 34,000  Climbing FlightAware ADS-B
Sun 07:16:50 AM 49.2444 -1.7871 283° West 448 516 32,500  Descending FlightAware UK
Sun 07:17:17 AM 49.2570 -1.8660 283° West 474 545 34,000 1,452 Climbing FlightAware ADS-B
Sun 07:17:52 AM 49.2740 -1.9820 283° West 474 545 34,000  Level FlightAware ADS-B
Sun 07:18:42 AM 49.2950 -2.1230 283° West 473 544 34,000  Level FlightAware ADS-B
Sun 07:19:17 AM 49.3120 -2.2410 283° West 474 545 34,000 -1,636 Level FlightAware ADS-B
Sun 07:19:37 AM 49.3258 -2.3351 283° West 454 522 32,500  Descending FlightAware UK
Sun 07:20:02 AM 49.3350 -2.3990 283° West 473 544 34,000  Climbing FlightAware ADS-B
Sun 07:20:37 AM 49.3543 -2.5306 283° West 454 522 32,500  Descending FlightAware UK
Sun 07:20:47 AM 49.3560 -2.5440 283° West 472 543 34,000  Climbing FlightAware ADS-B
Sun 07:21:07 AM 49.3680 -2.6285 283° West 454 522 32,500  Descending FlightAware UK
Sun 07:21:27 AM 49.3740 -2.6720 283° West 471 542 34,000  Climbing FlightAware ADS-B
Sun 07:21:43 AM 49.3847 -2.7457 283° West 452 520 32,500 -2,647 Descending FlightAware UK
Sun 07:22:01 AM 49.3930 -2.8043 282° West 454 522 32,500 3,103 Level FlightAware UK
Sun 07:22:12 AM 49.3960 -2.8210 282° West 469 540 34,000  Climbing FlightAware ADS-B
Sun 07:22:43 AM 49.4122 -2.9399 282° West 454 522 32,500  Descending FlightAware UK
Sun 07:22:52 AM 49.4140 -2.9510 282° West 469 540 34,000  Climbing FlightAware ADS-B
Sun 07:23:07 AM 49.4230 -3.0171 282° West 452 520 32,500 -2,308 Descending FlightAware UK
Sun 07:23:31 AM 49.4338 -3.0955 282° West 452 520 32,500 3,600 Level FlightAware UK
Sun 07:23:32 AM 49.4320 -3.0820 282° West 467 537 34,000  Climbing FlightAware ADS-B
Sun 07:23:49 AM 49.4418 -3.1531 282° West 452 520 32,500  Descending FlightAware UK
Sun 07:24:17 AM 49.4520 -3.2280 282° West 466 536 34,000  Climbing FlightAware ADS-B
Sun 07:24:37 AM 49.4630 -3.3083 282° West 450 518 32,500 -2,368 Descending FlightAware UK
Sun 07:24:55 AM 49.4709 -3.3664 282° West 450 518 32,500 4,500 Level FlightAware UK
Sun 07:24:57 AM 49.4700 -3.3610 282° West 465 535 34,000  Climbing FlightAware ADS-B
Sun 07:25:31 AM 49.4865 -3.4819 282° West 450 518 32,500  Descending FlightAware UK
Sun 07:25:42 AM 49.4890 -3.5040 282° West 464 534 34,000  Climbing FlightAware ADS-B
Sun 07:26:07 AM 49.5022 -3.5979 282° West 448 516 32,500  Descending FlightAware UK
Sun 07:26:22 AM 49.5070 -3.6340 282° West 464 534 34,000  Climbing FlightAware ADS-B
Sun 07:26:43 AM 49.5175 -3.7139 282° West 448 516 32,500  Descending FlightAware UK
Sun 07:27:02 AM 49.5240 -3.7610 282° West 464 534 34,000  Climbing FlightAware ADS-B
Sun 07:27:19 AM 49.5327 -3.8299 282° West 450 518 32,500 -2,571 Descending FlightAware UK
Sun 07:27:37 AM 49.5403 -3.8880 281° West 448 516 32,500 3,214 Level FlightAware UK
Sun 07:27:47 AM 49.5430 -3.9080 281° West 464 534 34,000 2,250 Climbing FlightAware ADS-B
Sun 07:28:17 AM 49.5550 -3.9980 282° West 463 533 34,000  Level FlightAware ADS-B
Sun 07:28:47 AM 49.5680 -4.1010 281° West 463 533 34,000 -1,343 Level FlightAware ADS-B
Sun 07:29:24 AM 49.5851 -4.2363 281° West 450 518 32,500  Descending FlightAware UK
Sun 07:29:27 AM 49.5850 -4.2310 281° West 463 533 34,000  Climbing FlightAware ADS-B
Sun 07:29:48 AM 49.5950 -4.3139 281° West 448 516 32,500 -2,308 Descending FlightAware UK
Sun 07:30:06 AM 49.6025 -4.3721 281° West 448 516 32,500 3,750 Level FlightAware UK
Sun 07:30:12 AM 49.6040 -4.3840 281° West 464 534 34,000  Climbing FlightAware ADS-B
Sun 07:30:42 AM 49.6173 -4.4888 281° West 448 516 32,500 -1,667 Descending FlightAware UK
Sun 07:31:06 AM 49.6271 -4.5666 281° West 448 516 32,500  Level FlightAware UK
Sun 07:31:24 AM 49.6343 -4.6249 281° West 450 518 32,500  Level FlightAware UK
Sun 07:31:42 AM 49.6414 -4.6833 281° West 450 518 32,500  Level FlightAware UK
Sun 07:32:00 AM 49.6485 -4.7416 281° West 450 518 32,500  Level FlightAware UK
Sun 07:32:24 AM 49.6580 -4.8188 281° West 448 516 32,500 2,143 Level FlightAware UK
Sun 07:32:42 AM 49.6620 -4.8510 281° West 464 534 34,000 1,375 Climbing FlightAware ADS-B
Sun 07:33:12 AM 49.6750 -4.9570 281° West 470 541 33,600 -2,875 Descending FlightAware ADS-B
Sun 07:33:30 AM 49.6844 -5.0342 281° West 458 527 31,700 -3,667 Descending FlightAware UK
Sun 07:33:48 AM 49.6915 -5.0934 280° West 458 527 31,400 3,545 Descending FlightAware UK
Sun 07:33:52 AM 49.6910 -5.0870 280° West 464 534 33,000 250 Climbing FlightAware ADS-B
Sun 07:34:12 AM 49.7004 -5.1715 280° West 452 520 31,500 -2,368 Descending FlightAware UK
Sun 07:34:30 AM 49.7071 -5.2289 280° West 450 518 31,500 4,500 Level FlightAware UK
Sun 07:34:32 AM 49.7060 -5.2190 280° West 456 525 33,000  Climbing FlightAware ADS-B
Sun 07:34:54 AM 49.7161 -5.3048 280° West 448 516 31,500 -2,250 Descending FlightAware UK
Sun 07:35:12 AM 49.7228 -5.3619 280° West 448 516 31,500 3,913 Level FlightAware UK
Sun 07:35:17 AM 49.7220 -5.3560 280° West 452 520 33,000  Climbing FlightAware ADS-B
Sun 07:35:42 AM 49.7339 -5.4570 280° West 450 518 31,500  Descending FlightAware UK
Sun 07:35:57 AM 49.7380 -5.4950 280° West 453 521 33,000  Climbing FlightAware ADS-B
Sun 07:36:12 AM 49.7452 -5.5523 280° West 450 518 31,500 -2,727 Descending FlightAware UK
Sun 07:36:30 AM 49.7518 -5.6096 280° West 452 520 31,500 3,600 Level FlightAware UK
Sun 07:36:37 AM 49.7530 -5.6190 280° West 452 520 33,000  Climbing FlightAware ADS-B
Sun 07:36:54 AM 49.7604 -5.6861 280° West 454 522 31,500 -2,571 Descending FlightAware UK
Sun 07:37:12 AM 49.7668 -5.7434 280° West 450 518 31,500 3,214 Level FlightAware UK
Sun 07:37:22 AM 49.7700 -5.7680 280° West 452 520 33,000  Climbing FlightAware ADS-B
Sun 07:37:42 AM 49.7777 -5.8388 280° West 452 520 31,500 -2,368 Descending FlightAware UK
Sun 07:38:00 AM 49.7840 -5.8955 280° West 452 520 31,500 4,500 Level FlightAware UK
Sun 07:38:02 AM 49.7840 -5.8960 280° West 452 520 33,000  Climbing FlightAware ADS-B
Sun 07:38:18 AM 49.7904 -5.9527 280° West 452 520 31,500 -2,647 Descending FlightAware UK
Sun 07:38:36 AM 49.7968 -6.0100 280° West 452 520 31,500 3,103 Level FlightAware UK
Sun 07:38:47 AM 49.7990 -6.0340 280° West 452 520 33,000  Climbing FlightAware ADS-B
Sun 07:39:06 AM 49.8074 -6.1054 280° West 450 518 31,500 -2,432 Descending FlightAware UK
Sun 07:39:24 AM 49.8137 -6.1626 280° West 448 516 31,500 4,286 Level FlightAware UK
Sun 07:39:27 AM 49.8130 -6.1520 280° West 452 520 33,000  Climbing FlightAware ADS-B
Sun 07:39:42 AM 49.8200 -6.2198 280° West 448 516 31,500 -2,727 Descending FlightAware UK
Sun 07:40:00 AM 49.8261 -6.2771 279° West 448 516 31,500 3,000 Level FlightAware UK
Sun 07:40:12 AM 49.8290 -6.2990 279° West 452 520 33,000  Climbing FlightAware ADS-B
Sun 07:40:30 AM 49.8365 -6.3727 279° West 452 520 31,500 -2,500 Descending FlightAware UK
Sun 07:40:48 AM 49.8426 -6.4301 279° West 452 520 31,500 4,091 Level FlightAware UK
Sun 07:40:52 AM 49.8420 -6.4260 279° West 453 521 33,000  Climbing FlightAware ADS-B
Sun 07:41:12 AM 49.8508 -6.5069 279° West 450 518 31,500 -2,368 Descending FlightAware UK
Sun 07:41:30 AM 49.8570 -6.5644 280° West 450 518 31,500 4,500 Level FlightAware UK
Sun 07:41:32 AM 49.8560 -6.5570 280° West 454 522 33,000  Climbing FlightAware ADS-B
Sun 07:41:48 AM 49.8633 -6.6220 280° West 450 518 31,500 -2,647 Descending FlightAware UK
Sun 07:42:06 AM 49.8693 -6.6797 279° West 450 518 31,500 3,103 Level FlightAware UK
Sun 07:42:17 AM 49.8720 -6.7020 279° West 454 522 33,000  Climbing FlightAware ADS-B
Sun 07:42:36 AM 49.8793 -6.7760 279° West 452 520 31,500 -2,432 Descending FlightAware UK
Sun 07:42:54 AM 49.8853 -6.8338 279° West 452 520 31,500 4,286 Level FlightAware UK
Sun 07:42:57 AM 49.8850 -6.8290 279° West 455 524 33,000  Climbing FlightAware ADS-B
Sun 07:43:12 AM 49.8913 -6.8917 279° West 450 518 31,500 -2,727 Descending FlightAware UK
Sun 07:43:30 AM 49.8972 -6.9497 279° West 452 520 31,500 3,000 Level FlightAware UK
Sun 07:43:42 AM 49.8990 -6.9700 279° West 456 525 33,000  Climbing FlightAware ADS-B
Sun 07:44:00 AM 49.9071 -7.0458 279° West 452 520 31,500 -2,500 Descending FlightAware UK
Sun 07:44:18 AM 49.9131 -7.1039 279° West 452 520 31,500 4,091 Level FlightAware UK
Sun 07:44:22 AM 49.9130 -7.1030 279° West 457 526 33,000  Climbing FlightAware ADS-B
Sun 07:44:42 AM 49.9209 -7.1814 279° West 452 520 31,500 -2,368 Descending FlightAware UK
Sun 07:45:00 AM 49.9267 -7.2396 279° West 452 520 31,500 4,500 Level FlightAware UK
Sun 07:45:02 AM 49.9250 -7.2280 279° West 457 526 33,000  Climbing FlightAware ADS-B
Sun 07:45:18 AM 49.9325 -7.2979 279° West 452 520 31,500 -2,647 Descending FlightAware UK
Sun 07:45:36 AM 49.9382 -7.3562 279° West 452 520 31,500 3,103 Level FlightAware UK
Sun 07:45:47 AM 49.9410 -7.3890 279° West 458 527 33,000  Climbing FlightAware ADS-B
Sun 07:46:06 AM 49.9477 -7.4535 279° West 452 520 31,500 -2,432 Descending FlightAware UK
Sun 07:46:24 AM 49.9534 -7.5119 279° West 452 520 31,500 4,286 Level FlightAware UK
Sun 07:46:27 AM 49.9530 -7.5090 279° West 458 527 33,000  Climbing FlightAware ADS-B
Sun 07:46:42 AM 49.9591 -7.5703 279° West 454 522 31,500 -2,727 Descending FlightAware UK
Sun 07:47:00 AM 49.9649 -7.6287 279° West 454 522 31,500 3,000 Level FlightAware UK
Sun 07:47:12 AM 49.9680 -7.6630 279° West 459 528 33,000  Climbing FlightAware ADS-B
Sun 07:47:30 AM 49.9742 -7.7262 279° West 454 522 31,500  Descending FlightAware UK
Sun 07:47:47 AM 49.9780 -7.7680 278° West 457 526 33,000  Climbing FlightAware ADS-B
Sun 07:47:48 AM 49.9797 -7.7847 278° West 456 525 31,500 -4,737 Descending FlightAware UK
Sun 07:48:06 AM 49.9852 -7.8431 278° West 456 525 31,500  Level FlightAware UK
Sun 07:48:24 AM 49.9907 -7.9016 278° West 458 527 31,500 3,462 Level FlightAware UK
Sun 07:48:32 AM 49.9930 -7.9220 278° West 457 526 33,000  Climbing FlightAware ADS-B
Sun 07:48:48 AM 49.9981 -7.9794 278° West 458 527 31,500 -2,647 Descending FlightAware UK
Sun 07:49:06 AM 50.0068 -8.0371 283° West 458 527 31,500 3,103 Level FlightAware UK
Sun 07:49:17 AM 50.0120 -8.0650 283° West 461 531 33,000  Climbing FlightAware ADS-B
Sun 07:49:36 AM 50.0229 -8.1327 283° West 458 527 31,500 -2,432 Descending FlightAware UK
Sun 07:49:54 AM 50.0328 -8.1903 285° West 458 527 31,500 4,286 Level FlightAware UK
Sun 07:49:57 AM 50.0340 -8.1950 285° West 461 531 33,000  Climbing FlightAware ADS-B
Sun 07:50:12 AM 50.0428 -8.2479 285° West 458 527 31,500 -2,727 Descending FlightAware UK
Sun 07:50:30 AM 50.0529 -8.3053 285° West 458 527 31,500 3,600 Level FlightAware UK
Sun 07:50:37 AM 50.0560 -8.3230 285° West 461 531 33,000  Climbing FlightAware ADS-B
Sun 07:50:54 AM 50.0664 -8.3818 285° West 456 525 31,500 -2,571 Descending FlightAware UK
Sun 07:51:12 AM 50.0764 -8.4393 285° West 456 525 31,500 3,214 Level FlightAware UK
Sun 07:51:22 AM 50.0810 -8.4630 285° West 460 529 33,000  Climbing FlightAware ADS-B
Sun 07:51:42 AM 50.0928 -8.5350 285° West 458 527 31,500 -2,368 Descending FlightAware UK
Sun 07:52:00 AM 50.1027 -8.5924 285° West 462 532 31,500 4,500 Level FlightAware UK
Sun 07:52:02 AM 50.1030 -8.5920 285° West 458 527 33,000  Climbing FlightAware ADS-B
Sun 07:52:18 AM 50.1125 -8.6497 285° West 464 534 31,500 -2,647 Descending FlightAware UK
Sun 07:52:36 AM 50.1222 -8.7070 285° West 462 532 31,500 3,103 Level FlightAware UK
Sun 07:52:47 AM 50.1280 -8.7390 285° West 455 524 33,000  Climbing FlightAware ADS-B
Sun 07:53:06 AM 50.1381 -8.8022 285° West 460 529 31,500 -2,432 Descending FlightAware UK
Sun 07:53:24 AM 50.1476 -8.8591 285° West 458 527 31,500 4,286 Level FlightAware UK
Sun 07:53:27 AM 50.1480 -8.8570 285° West 452 520 33,000  Climbing FlightAware ADS-B
Sun 07:53:42 AM 50.1571 -8.9157 285° West 458 527 31,500 -2,727 Descending FlightAware UK
Sun 07:54:00 AM 50.1666 -8.9721 285° West 456 525 31,500 3,000 Level FlightAware UK
Sun 07:54:12 AM 50.1720 -9.0050 285° West 449 517 33,000 1,731 Climbing FlightAware ADS-B
Sun 07:54:52 AM 50.1930 -9.1280 285° West 447 514 33,000  Level FlightAware ADS-B
Sun 07:55:32 AM 50.2130 -9.2500 284° West 445 512 33,000  Level FlightAware ADS-B
Sun 07:56:17 AM 50.2360 -9.3890 285° West 443 510 33,000  Level FlightAware ADS-B
Sun 07:56:57 AM 50.2540 -9.5030 284° West 443 510 33,000  Level FlightAware ADS-B
Sun 07:57:42 AM 50.2780 -9.6540 284° West 440 506 33,000  Level FlightAware ADS-B
Sun 07:58:27 AM 50.2990 -9.7830 284° West 441 507 33,000  Level FlightAware ADS-B
Sun 07:59:17 AM 50.3250 -9.9500 284° West 440 506 33,000  Level FlightAware ADS-B
Sun 07:59:57 AM 50.3420 -10.0610 284° West 440 506 33,000  Level FlightAware ADS-B
Sun 08:00:37 AM 50.3570 -10.1660 283° West 440 506 33,000  Level FlightAware ADS-B
Sun 08:01:22 AM 50.3850 -10.3350 285° West 441 507 33,000  Level FlightAware ADS-B
Sun 08:02:02 AM 50.4020 -10.4450 284° West 443 510 33,000  Level FlightAware ADS-B
Sun 08:02:42 AM 50.4170 -10.5510 283° West 443 510 33,000  Level FlightAware ADS-B
Sun 08:03:32 AM 50.4370 -10.6850 283° West 443 510 33,000  Level FlightAware ADS-B
Sun 08:04:12 AM 50.4520 -10.7910 283° West 443 510 33,000  Level FlightAware ADS-B
Sun 08:04:47 AM 50.4810 -10.9720 284° West 446 513 33,000  Level FlightAware ADS-B
Sun 08:05:32 AM 50.4990 -11.1010 282° West 446 513 33,000  Level FlightAware ADS-B
Sun 08:06:12 AM 50.5130 -11.2090 282° West 446 513 33,000  Level FlightAware ADS-B
Sun 08:07:02 AM 50.5320 -11.3440 283° West 446 513 33,000  Level FlightAware ADS-B
Sun 08:07:42 AM 50.5460 -11.4520 282° West 446 513 33,000  Level FlightAware ADS-B
Sun 08:08:22 AM 50.5610 -11.5600 282° West 446 513 33,000  Level FlightAware ADS-B
Sun 08:09:02 AM 50.5750 -11.6680 282° West 446 513 33,000  Level FlightAware ADS-B
Sun 08:09:42 AM 50.5900 -11.7760 282° West 446 513 33,000  Level FlightAware ADS-B
Sun 08:10:32 AM 50.6080 -11.9110 282° West 446 513 33,000  Level FlightAware ADS-B
Sun 08:11:12 AM 50.6230 -12.0190 282° West 446 513 33,000  Level FlightAware ADS-B
Sun 08:11:52 AM 50.6370 -12.1280 281° West 446 513 33,000  Level FlightAware ADS-B
Sun 08:12:22 AM 50.6480 -12.2090 282° West 446 513 33,000  Level FlightAware ADS-B
Sun 08:13:02 AM 50.6630 -12.3170 282° West 446 513 33,000  Level FlightAware ADS-B
Sun 08:13:42 AM 50.6770 -12.4250 282° West 446 513 33,000  Level FlightAware ADS-B
Sun 08:14:22 AM 50.6920 -12.5340 282° West 446 513 33,000  Level FlightAware ADS-B
Sun 08:16:00 AM 50.7486 -12.8246 287° West  Level Estimated
Sun 08:17:00 AM 50.7828 -13.0028 287° West  Level Estimated
Sun 08:18:00 AM 50.8168 -13.1814 287° West  Level Estimated
Sun 08:19:00 AM 50.8505 -13.3601 287° West  Level Estimated
Sun 08:20:00 AM 50.8840 -13.5392 287° West  Level Estimated
Sun 08:21:00 AM 50.9171 -13.7184 286° West  Level Estimated
Sun 08:22:00 AM 50.9500 -13.8980 286° West  Level Estimated
Sun 08:23:00 AM 50.9827 -14.0778 286° West  Level Estimated
Sun 08:24:00 AM 51.0150 -14.2578 286° West  Level Estimated
Sun 08:25:00 AM 51.0471 -14.4381 286° West  Level Estimated
Sun 08:26:00 AM 51.0789 -14.6187 286° West  Level Estimated
Sun 08:27:00 AM 51.1104 -14.7995 286° West  Level Estimated
Sun 08:28:00 AM 51.1416 -14.9805 285° West  Level Estimated
Sun 08:29:00 AM 51.1726 -15.1618 285° West  Level Estimated
Sun 08:30:00 AM 51.2032 -15.3433 285° West  Level Estimated
Sun 08:31:00 AM 51.2336 -15.5251 285° West  Level Estimated
Sun 08:32:00 AM 51.2637 -15.7071 285° West  Level Estimated
Sun 08:33:00 AM 51.2935 -15.8893 285° West  Level Estimated
Sun 08:34:00 AM 51.3231 -16.0718 285° West  Level Estimated
Sun 08:35:00 AM 51.3523 -16.2545 284° West  Level Estimated
Sun 08:36:00 AM 51.3813 -16.4375 284° West  Level Estimated
Sun 08:37:00 AM 51.4100 -16.6207 284° West  Level Estimated
Sun 08:38:00 AM 51.4384 -16.8041 284° West  Level Estimated
Sun 08:39:00 AM 51.4665 -16.9877 284° West  Level Estimated
Sun 08:40:00 AM 51.4944 -17.1716 284° West  Level Estimated
Sun 08:41:00 AM 51.5219 -17.3556 284° West  Level Estimated
Sun 08:42:00 AM 51.5491 -17.5399 283° West  Level Estimated
Sun 08:43:00 AM 51.5761 -17.7245 283° West  Level Estimated
Sun 08:44:00 AM 51.6028 -17.9092 283° West  Level Estimated
Sun 08:45:00 AM 51.6292 -18.0942 283° West  Level Estimated
Sun 08:46:00 AM 51.6553 -18.2793 283° West  Level Estimated
Sun 08:47:00 AM 51.6810 -18.4647 283° West  Level Estimated
Sun 08:48:00 AM 51.7066 -18.6503 283° West  Level Estimated
Sun 08:49:00 AM 51.7318 -18.8361 282° West  Level Estimated
Sun 08:50:00 AM 51.7579 -19.0308 282° West  Level Estimated
Sun 08:51:00 AM 51.7836 -19.2257 282° West  Level Estimated
Sun 08:52:00 AM 51.8091 -19.4208 282° West  Level Estimated
Sun 08:53:00 AM 51.8342 -19.6162 282° West  Level Estimated
Sun 08:54:00 AM 51.8590 -19.8117 282° West  Level Estimated
Sun 08:55:00 AM 51.8834 -20.0075 282° West  Level Estimated
Sun 08:55:00 AM 50.0000 -20.0000 257° West 425 489 33,000  Level ETMS Enhanced Traffic Management System
Sun 08:56:00 AM 51.9076 -20.2035 281° West  Level Estimated
Sun 08:57:00 AM 51.9314 -20.3997 281° West  Level Estimated
Sun 08:58:00 AM 51.9548 -20.5961 281° West  Level Estimated
Sun 08:59:00 AM 51.9780 -20.7927 281° West  Level Estimated
Sun 09:00:00 AM 52.0008 -20.9895 281° West  Level Estimated
Sun 09:01:00 AM 49.7765 -21.4254 256° West 425 489 33,000  Level FlightAware Transoceanic
Sun 09:02:00 AM 49.7473 -21.6027 256° West 425 489 33,000  Level FlightAware Transoceanic
Sun 09:03:00 AM 49.7179 -21.7797 256° West 425 489 33,000  Level FlightAware Transoceanic
Sun 09:04:00 AM 49.6881 -21.9565 255° West 425 489 33,000  Level FlightAware Transoceanic
Sun 09:05:00 AM 49.6582 -22.1331 255° West 425 489 33,000  Level FlightAware Transoceanic
Sun 09:06:00 AM 49.6279 -22.3095 255° West 425 489 33,000  Level FlightAware Transoceanic
Sun 09:07:00 AM 49.5974 -22.4856 255° West 425 489 33,000  Level FlightAware Transoceanic
Sun 09:08:00 AM 49.5667 -22.6616 255° West 425 489 33,000  Level FlightAware Transoceanic
Sun 09:09:00 AM 49.5356 -22.8373 255° West 425 489 33,000  Level FlightAware Transoceanic
Sun 09:10:00 AM 49.5043 -23.0128 255° West 425 489 33,000  Level FlightAware Transoceanic
Sun 09:11:00 AM 49.4727 -23.1880 254° West 425 489 33,000  Level FlightAware Transoceanic
Sun 09:12:00 AM 49.4409 -23.3631 254° West 425 489 33,000  Level FlightAware Transoceanic
Sun 09:13:00 AM 49.4088 -23.5379 254° West 425 489 33,000  Level FlightAware Transoceanic
Sun 09:14:00 AM 49.3764 -23.7125 254° West 425 489 33,000  Level FlightAware Transoceanic
Sun 09:15:00 AM 49.3438 -23.8868 254° West 425 489 33,000  Level FlightAware Transoceanic
Sun 09:16:00 AM 49.3109 -24.0609 254° West 425 489 33,000  Level FlightAware Transoceanic
Sun 09:17:00 AM 49.2777 -24.2348 254° West 425 489 33,000  Level FlightAware Transoceanic
Sun 09:18:00 AM 49.2443 -24.4084 254° West 425 489 33,000  Level FlightAware Transoceanic
Sun 09:19:00 AM 49.2107 -24.5819 253° West 425 489 33,000  Level FlightAware Transoceanic
Sun 09:20:00 AM 49.1767 -24.7550 253° West 425 489 33,000  Level FlightAware Transoceanic
Sun 09:21:00 AM 49.1425 -24.9280 253° West 425 489 33,000  Level FlightAware Transoceanic
Sun 09:22:00 AM 49.1081 -25.1007 253° West 425 489 33,000  Level FlightAware Transoceanic
Sun 09:23:00 AM 49.0734 -25.2731 253° West 425 489 33,000  Level FlightAware Transoceanic
Sun 09:24:00 AM 49.0384 -25.4453 253° West 425 489 33,000  Level FlightAware Transoceanic
Sun 09:25:00 AM 49.0032 -25.6173 253° West 425 489 33,000  Level FlightAware Transoceanic
Sun 09:26:00 AM 48.9677 -25.7890 252° West 425 489 33,000  Level FlightAware Transoceanic
Sun 09:27:00 AM 48.9320 -25.9605 252° West 425 489 33,000  Level FlightAware Transoceanic
Sun 09:28:00 AM 48.8960 -26.1317 252° West 425 489 33,000  Level FlightAware Transoceanic
Sun 09:29:00 AM 48.8598 -26.3027 252° West 425 489 33,000  Level FlightAware Transoceanic
Sun 09:30:00 AM 48.8233 -26.4735 252° West 425 489 33,000  Level FlightAware Transoceanic
Sun 09:31:00 AM 48.7866 -26.6440 252° West 425 489 33,000  Level FlightAware Transoceanic
Sun 09:32:00 AM 48.7496 -26.8142 252° West 425 489 33,000  Level FlightAware Transoceanic
Sun 09:33:00 AM 48.7123 -26.9842 252° West 425 489 33,000  Level FlightAware Transoceanic
Sun 09:34:00 AM 48.6748 -27.1539 251° West 425 489 33,000  Level FlightAware Transoceanic
Sun 09:35:00 AM 48.6371 -27.3234 251° West 425 489 33,000  Level FlightAware Transoceanic
Sun 09:36:00 AM 48.5991 -27.4926 251° West 425 489 33,000  Level FlightAware Transoceanic
Sun 09:37:00 AM 48.5609 -27.6616 251° West 425 489 33,000  Level FlightAware Transoceanic
Sun 09:38:00 AM 48.5224 -27.8303 251° West 425 489 33,000  Level FlightAware Transoceanic
Sun 09:39:00 AM 48.4837 -27.9988 251° West 425 489 33,000  Level FlightAware Transoceanic
Sun 09:40:00 AM 48.4447 -28.1670 251° West 425 489 33,000  Level FlightAware Transoceanic
Sun 09:41:00 AM 48.4055 -28.3350 251° West 425 489 33,000  Level FlightAware Transoceanic
Sun 09:42:00 AM 48.3660 -28.5026 250° West 425 489 33,000  Level FlightAware Transoceanic
Sun 09:43:00 AM 48.3263 -28.6701 250° West 425 489 33,000  Level FlightAware Transoceanic
Sun 09:44:00 AM 48.2864 -28.8372 250° West 425 489 33,000  Level FlightAware Transoceanic
Sun 09:45:00 AM 48.2462 -29.0041 250° West 425 489 33,000  Level FlightAware Transoceanic
Sun 09:46:00 AM 48.2057 -29.1708 250° West 425 489 33,000  Level FlightAware Transoceanic
Sun 09:47:00 AM 48.1651 -29.3372 250° West 425 489 33,000  Level FlightAware Transoceanic
Sun 09:48:00 AM 48.1242 -29.5033 250° West 425 489 33,000  Level FlightAware Transoceanic
Sun 09:49:00 AM 48.0830 -29.6691 250° West 425 489 33,000  Level FlightAware Transoceanic
Sun 09:50:00 AM 48.0416 -29.8347 249° West 425 489 33,000  Level FlightAware Transoceanic
Sun 09:51:00 AM 47.9982 -30.0072 249° West  Level FlightAware Approximate
Sun 09:52:00 AM 47.9991 -30.0154 265° West  Level FlightAware Approximate
Sun 09:53:00 AM 47.9885 -30.1990 265° West  Level FlightAware Approximate
Sun 09:53:46 AM 48.0000 -30.0000 265° West 431 496 33,000  Level ETMS Enhanced Traffic Management System
Sun 09:54:00 AM 47.9775 -30.3825 265° West  Level FlightAware Approximate
Sun 09:55:00 AM 47.9663 -30.5660 265° West  Level FlightAware Approximate
Sun 09:56:00 AM 47.9547 -30.7493 265° West  Level FlightAware Approximate
Sun 09:57:00 AM 47.9429 -30.9326 265° West  Level FlightAware Approximate
Sun 09:58:00 AM 47.9308 -31.1158 264° West  Level FlightAware Approximate
Sun 09:59:00 AM 47.9004 -31.6020 264° West 431 496 33,000  Level FlightAware Transoceanic
Sun 10:00:00 AM 47.8880 -31.7796 264° West 431 496 33,000  Level FlightAware Transoceanic
Sun 10:01:00 AM 47.8753 -31.9571 264° West 431 496 33,000  Level FlightAware Transoceanic
Sun 10:02:00 AM 47.8623 -32.1345 264° West 431 496 33,000  Level FlightAware Transoceanic
Sun 10:03:00 AM 47.8490 -32.3118 264° West 431 496 33,000  Level FlightAware Transoceanic
Sun 10:04:00 AM 47.8355 -32.4891 263° West 431 496 33,000  Level FlightAware Transoceanic
Sun 10:05:00 AM 47.8217 -32.6662 263° West 431 496 33,000  Level FlightAware Transoceanic
Sun 10:06:00 AM 47.8076 -32.8433 263° West 431 496 33,000  Level FlightAware Transoceanic
Sun 10:07:00 AM 47.7933 -33.0202 263° West 431 496 33,000  Level FlightAware Transoceanic
Sun 10:08:00 AM 47.7786 -33.1971 263° West 431 496 33,000  Level FlightAware Transoceanic
Sun 10:09:00 AM 47.7637 -33.3739 263° West 431 496 33,000  Level FlightAware Transoceanic
Sun 10:10:00 AM 47.7486 -33.5505 263° West 431 496 33,000  Level FlightAware Transoceanic
Sun 10:11:00 AM 47.7331 -33.7271 263° West 431 496 33,000  Level FlightAware Transoceanic
Sun 10:12:00 AM 47.7174 -33.9035 262° West 431 496 33,000  Level FlightAware Transoceanic
Sun 10:13:00 AM 47.7015 -34.0799 262° West 431 496 33,000  Level FlightAware Transoceanic
Sun 10:14:00 AM 47.6852 -34.2561 262° West 431 496 33,000  Level FlightAware Transoceanic
Sun 10:15:00 AM 47.6687 -34.4322 262° West 431 496 33,000  Level FlightAware Transoceanic
Sun 10:16:00 AM 47.6519 -34.6082 262° West 431 496 33,000  Level FlightAware Transoceanic
Sun 10:17:00 AM 47.6349 -34.7841 262° West 431 496 33,000  Level FlightAware Transoceanic
Sun 10:18:00 AM 47.6175 -34.9599 262° West 431 496 33,000  Level FlightAware Transoceanic
Sun 10:19:00 AM 47.5999 -35.1356 261° West 431 496 33,000  Level FlightAware Transoceanic
Sun 10:20:00 AM 47.5821 -35.3111 261° West 431 496 33,000  Level FlightAware Transoceanic
Sun 10:21:00 AM 47.5640 -35.4865 261° West 431 496 33,000  Level FlightAware Transoceanic
Sun 10:22:00 AM 47.5456 -35.6618 261° West 431 496 33,000  Level FlightAware Transoceanic
Sun 10:23:00 AM 47.5269 -35.8370 261° West 431 496 33,000  Level FlightAware Transoceanic
Sun 10:24:00 AM 47.5080 -36.0120 261° West 431 496 33,000  Level FlightAware Transoceanic
Sun 10:25:00 AM 47.4888 -36.1870 261° West 431 496 33,000  Level FlightAware Transoceanic
Sun 10:26:00 AM 47.4693 -36.3618 261° West 431 496 33,000  Level FlightAware Transoceanic
Sun 10:27:00 AM 47.4496 -36.5364 260° West 431 496 33,000  Level FlightAware Transoceanic
Sun 10:28:00 AM 47.4296 -36.7110 260° West 431 496 33,000  Level FlightAware Transoceanic
Sun 10:29:00 AM 47.4094 -36.8854 260° West 431 496 33,000  Level FlightAware Transoceanic
Sun 10:30:00 AM 47.3889 -37.0596 260° West 431 496 33,000  Level FlightAware Transoceanic
Sun 10:31:00 AM 47.3681 -37.2337 260° West 431 496 33,000  Level FlightAware Transoceanic
Sun 10:32:00 AM 47.3470 -37.4077 260° West 431 496 33,000  Level FlightAware Transoceanic
Sun 10:33:00 AM 47.3257 -37.5816 260° West 431 496 33,000  Level FlightAware Transoceanic
Sun 10:34:00 AM 47.3041 -37.7553 260° West 431 496 33,000  Level FlightAware Transoceanic
Sun 10:35:00 AM 47.2823 -37.9289 259° West 431 496 33,000  Level FlightAware Transoceanic
Sun 10:36:00 AM 47.2602 -38.1023 259° West 431 496 33,000  Level FlightAware Transoceanic
Sun 10:37:00 AM 47.2379 -38.2756 259° West 431 496 33,000  Level FlightAware Transoceanic
Sun 10:38:00 AM 47.2152 -38.4487 259° West 431 496 33,000  Level FlightAware Transoceanic
Sun 10:39:00 AM 47.1924 -38.6217 259° West 431 496 33,000  Level FlightAware Transoceanic
Sun 10:40:00 AM 47.1692 -38.7945 259° West 431 496 33,000  Level FlightAware Transoceanic
Sun 10:41:00 AM 47.1458 -38.9672 259° West 431 496 33,000  Level FlightAware Transoceanic
Sun 10:42:00 AM 47.1222 -39.1397 259° West 431 496 33,000  Level FlightAware Transoceanic
Sun 10:43:00 AM 47.0982 -39.3121 258° West 431 496 33,000  Level FlightAware Transoceanic
Sun 10:44:00 AM 47.0741 -39.4843 258° West 431 496 33,000  Level FlightAware Transoceanic
Sun 10:45:00 AM 47.0496 -39.6564 258° West 431 496 33,000  Level FlightAware Transoceanic
Sun 10:46:00 AM 47.0249 -39.8283 258° West 431 496 33,000  Level FlightAware Transoceanic
Sun 10:47:00 AM 46.9992 -40.0052 258° West  Level FlightAware Approximate
Sun 10:48:00 AM 46.9985 -40.0103 258° West  Level FlightAware Approximate
Sun 10:48:52 AM 47.0000 -40.0000 258° West 440 506 33,000  Level ETMS Enhanced Traffic Management System
Sun 10:49:00 AM 46.9718 -40.1868 258° West  Level FlightAware Approximate
Sun 10:50:00 AM 46.9448 -40.3631 257° West  Level FlightAware Approximate
Sun 10:51:00 AM 46.9178 -40.5382 257° West  Level FlightAware Approximate
Sun 10:52:00 AM 46.8904 -40.7132 257° West  Level FlightAware Approximate
Sun 10:53:00 AM 46.8629 -40.8880 257° West  Level FlightAware Approximate
Sun 10:54:00 AM 46.8350 -41.0625 257° West  Level FlightAware Approximate
Sun 10:55:00 AM 46.7522 -41.5706 256° West 440 506 33,000  Level FlightAware Transoceanic
Sun 10:56:00 AM 46.7234 -41.7442 256° West 440 506 33,000  Level FlightAware Transoceanic
Sun 10:57:00 AM 46.6943 -41.9176 256° West 440 506 33,000  Level FlightAware Transoceanic
Sun 10:58:00 AM 46.6649 -42.0908 256° West 440 506 33,000  Level FlightAware Transoceanic
Sun 10:59:00 AM 46.6353 -42.2639 256° West 440 506 33,000  Level FlightAware Transoceanic
Sun 11:00:00 AM 46.6054 -42.4367 256° West 440 506 33,000  Level FlightAware Transoceanic
Sun 11:01:00 AM 46.5752 -42.6094 256° West 440 506 33,000  Level FlightAware Transoceanic
Sun 11:02:00 AM 46.5448 -42.7818 256° West 440 506 33,000  Level FlightAware Transoceanic
Sun 11:03:00 AM 46.5141 -42.9541 255° West 440 506 33,000  Level FlightAware Transoceanic
Sun 11:04:00 AM 46.4832 -43.1262 255° West 440 506 33,000  Level FlightAware Transoceanic
Sun 11:05:00 AM 46.4520 -43.2980 255° West 440 506 33,000  Level FlightAware Transoceanic
Sun 11:06:00 AM 46.4206 -43.4697 255° West 440 506 33,000  Level FlightAware Transoceanic
Sun 11:07:00 AM 46.3889 -43.6412 255° West 440 506 33,000  Level FlightAware Transoceanic
Sun 11:08:00 AM 46.3569 -43.8125 255° West 440 506 33,000  Level FlightAware Transoceanic
Sun 11:09:00 AM 46.3247 -43.9836 255° West 440 506 33,000  Level FlightAware Transoceanic
Sun 11:10:00 AM 46.2922 -44.1544 255° West 440 506 33,000  Level FlightAware Transoceanic
Sun 11:11:00 AM 46.2595 -44.3251 254° West 440 506 33,000  Level FlightAware Transoceanic
Sun 11:12:00 AM 46.2265 -44.4956 254° West 440 506 33,000  Level FlightAware Transoceanic
Sun 11:13:00 AM 46.1933 -44.6659 254° West 440 506 33,000  Level FlightAware Transoceanic
Sun 11:14:00 AM 46.1598 -44.8359 254° West 440 506 33,000  Level FlightAware Transoceanic
Sun 11:15:00 AM 46.1261 -45.0058 254° West 440 506 33,000  Level FlightAware Transoceanic
Sun 11:16:00 AM 46.0921 -45.1754 254° West 440 506 33,000  Level FlightAware Transoceanic
Sun 11:17:00 AM 46.0578 -45.3448 254° West 440 506 33,000  Level FlightAware Transoceanic
Sun 11:18:00 AM 46.0234 -45.5141 254° West 440 506 33,000  Level FlightAware Transoceanic
Sun 11:19:00 AM 45.9886 -45.6831 253° West 440 506 33,000  Level FlightAware Transoceanic
Sun 11:20:00 AM 45.9536 -45.8519 253° West 440 506 33,000  Level FlightAware Transoceanic
Sun 11:21:00 AM 45.9184 -46.0205 253° West 440 506 33,000  Level FlightAware Transoceanic
Sun 11:22:00 AM 45.8829 -46.1888 253° West 440 506 33,000  Level FlightAware Transoceanic
Sun 11:23:00 AM 45.8472 -46.3570 253° West 440 506 33,000  Level FlightAware Transoceanic
Sun 11:24:00 AM 45.8112 -46.5249 253° West 440 506 33,000  Level FlightAware Transoceanic
Sun 11:25:00 AM 45.7750 -46.6926 253° West 440 506 33,000  Level FlightAware Transoceanic
Sun 11:26:00 AM 45.7385 -46.8601 253° West 440 506 33,000  Level FlightAware Transoceanic
Sun 11:27:00 AM 45.7018 -47.0274 252° West 440 506 33,000  Level FlightAware Transoceanic
Sun 11:28:00 AM 45.6649 -47.1945 252° West 440 506 33,000  Level FlightAware Transoceanic
Sun 11:29:00 AM 45.6277 -47.3613 252° West 440 506 33,000  Level FlightAware Transoceanic
Sun 11:30:00 AM 45.5902 -47.5279 252° West 440 506 33,000  Level FlightAware Transoceanic
Sun 11:31:00 AM 45.5526 -47.6943 252° West 440 506 33,000  Level FlightAware Transoceanic
Sun 11:32:00 AM 45.5146 -47.8605 252° West 440 506 33,000  Level FlightAware Transoceanic
Sun 11:33:00 AM 45.4765 -48.0264 252° West 440 506 33,000  Level FlightAware Transoceanic
Sun 11:34:00 AM 45.4381 -48.1922 252° West 440 506 33,000  Level FlightAware Transoceanic
Sun 11:35:00 AM 45.3994 -48.3577 252° West 440 506 33,000  Level FlightAware Transoceanic
Sun 11:36:00 AM 45.3606 -48.5229 251° West 440 506 33,000  Level FlightAware Transoceanic
Sun 11:37:00 AM 45.3214 -48.6880 251° West 440 506 33,000  Level FlightAware Transoceanic
Sun 11:38:00 AM 45.2821 -48.8528 251° West 440 506 33,000  Level FlightAware Transoceanic
Sun 11:39:00 AM 45.2425 -49.0174 251° West 440 506 33,000  Level FlightAware Transoceanic
Sun 11:40:00 AM 45.2027 -49.1817 251° West 440 506 33,000  Level FlightAware Transoceanic
Sun 11:41:00 AM 45.1626 -49.3458 251° West 440 506 33,000  Level FlightAware Transoceanic
Sun 11:42:00 AM 45.1223 -49.5097 251° West 440 506 33,000  Level FlightAware Transoceanic
Sun 11:42:59 AM 45.0000 -50.0000 265° West 426 490 33,000  Level ETMS Enhanced Traffic Management System
Sun 11:43:00 AM 45.0818 -49.6734 251° West 440 506 33,000  Level FlightAware Transoceanic
Sun 11:43:55 AM 44.9667 -50.3333 264° West 480 552 33,000  Level Gander Center
Sun 11:44:00 AM 45.0410 -49.8368 250° West 440 506 33,000  Level FlightAware Transoceanic
Sun 11:44:55 AM 44.9667 -50.5167 270° West 490 564 33,000 835 Level Gander Center
Sun 11:45:00 AM 45.0007 -49.9971 250° West  Level FlightAware Approximate
Sun 11:45:55 AM 44.9833 -50.7000 277° West 470 541 34,600  Level Gander Center
Sun 11:46:00 AM 44.9895 -50.1663 265° West  Level FlightAware Approximate
Sun 11:46:55 AM 45.0000 -50.9000 277° West 480 552 35,600  Level Gander Center
Sun 11:47:00 AM 44.9786 -50.3357 265° West  Level FlightAware Approximate
Sun 11:47:55 AM 45.0167 -51.0833 277° West 480 552 36,000  Level Gander Center
Sun 11:48:00 AM 44.9674 -50.5049 265° West  Level FlightAware Approximate
Sun 11:48:55 AM 45.0333 -51.2667 277° West 460 529 36,000  Level Gander Center
Sun 11:49:00 AM 44.9319 -51.0181 264° West  Level FlightAware Approximate
Sun 11:49:45 AM 45.0667 -51.4000 290° West 460 529 36,000  Level Gander Center
Sun 11:50:45 AM 45.0833 -51.5833 277° West 470 541 36,000  Level Gander Center
Sun 11:51:25 AM 45.1000 -51.7167 280° West 460 529 36,000  Level Moncton Center
Sun 11:52:25 AM 45.1167 -51.8833 278° West 460 529 36,000  Level Moncton Center
Sun 11:52:45 AM 45.1167 -51.9333 270° West 460 529 36,000  Level Gander Center
Sun 11:53:45 AM 45.1333 -52.1167 277° West 460 529 36,000  Level Gander Center
Sun 11:54:45 AM 45.1667 -52.3000 285° West 470 541 36,000  Level Gander Center
Sun 11:55:45 AM 45.1833 -52.4667 278° West 460 529 36,000  Level Gander Center
Sun 11:56:45 AM 45.2167 -52.6500 285° West 460 529 36,000  Level Gander Center
Sun 11:57:45 AM 45.2333 -52.8167 278° West 460 529 36,000  Level Gander Center
Sun 11:58:45 AM 45.2667 -53.0000 285° West 470 541 36,000  Level Gander Center
Sun 11:59:25 AM 45.2667 -53.1333 270° West 460 529 36,000  Level Moncton Center
Sun 11:59:45 AM 45.2833 -53.2000 290° West 460 529 36,000  Level Gander Center
Sun 12:05:52 PM 45.4120 -54.3280 290° West 457 526 36,000  Level FlightAware ADS-B
Sun 12:06:27 PM 45.4210 -54.4220 278° West 457 526 36,000  Level FlightAware ADS-B
Sun 12:07:02 PM 45.4310 -54.5210 278° West 457 526 36,000  Level FlightAware ADS-B
Sun 12:07:42 PM 45.4410 -54.6220 278° West 457 526 36,000  Level FlightAware ADS-B
Sun 12:08:12 PM 45.4490 -54.6980 279° West 457 526 36,000  Level FlightAware ADS-B
Sun 12:08:52 PM 45.4590 -54.8000 278° West 457 526 36,000  Level FlightAware ADS-B
Sun 12:09:42 PM 45.4710 -54.9270 278° West 457 526 36,000  Level FlightAware ADS-B
Sun 12:10:12 PM 45.4790 -55.0030 279° West 457 526 36,000  Level FlightAware ADS-B
Sun 12:11:02 PM 45.4910 -55.1300 278° West 457 526 36,000  Level FlightAware ADS-B
Sun 12:11:42 PM 45.5010 -55.2310 278° West 457 526 36,000  Level FlightAware ADS-B
Sun 12:12:22 PM 45.5110 -55.3330 278° West 457 526 36,000  Level FlightAware ADS-B
Sun 12:13:12 PM 45.5240 -55.4600 278° West 457 526 36,000  Level FlightAware ADS-B
Sun 12:13:42 PM 45.5310 -55.5360 278° West 457 526 36,000  Level FlightAware ADS-B
Sun 12:14:42 PM 45.5460 -55.6890 278° West 457 526 36,000  Level FlightAware ADS-B
Sun 12:15:22 PM 45.5560 -55.7900 278° West 457 526 36,000  Level FlightAware ADS-B
Sun 12:16:02 PM 45.5660 -55.8920 278° West 457 526 36,000  Level FlightAware ADS-B
Sun 12:16:25 PM 45.5667 -56.1667 278° West 450 518 36,000  Level Moncton Center
Sun 12:16:55 PM 45.6000 -56.2500 300° West 450 518 36,000  Level Gander Center
Sun 12:17:55 PM 45.6000 -56.4167 270° West 450 518 36,000  Level Gander Center
Sun 12:18:25 PM 45.6167 -56.5167 283° West 450 518 36,000  Level Moncton Center
Sun 12:24:47 PM 45.7110 -57.6730 283° West 438 504 36,000  Level FlightAware ADS-B
Sun 12:25:32 PM 45.7200 -57.7990 276° West 436 502 36,000  Level FlightAware ADS-B
Sun 12:25:57 PM 45.7260 -57.8750 276° West 436 502 36,000  Level FlightAware ADS-B
Sun 12:26:42 PM 45.7350 -57.9990 276° West 435 501 36,000  Level FlightAware ADS-B
Sun 12:27:22 PM 45.7430 -58.1150 276° West 434 499 36,000  Level FlightAware ADS-B
Sun 12:27:52 PM 45.7490 -58.2010 276° West 434 499 36,000  Level FlightAware ADS-B
Sun 12:28:42 PM 45.7590 -58.3440 276° West 433 498 36,000  Level FlightAware ADS-B
Sun 12:29:22 PM 45.7660 -58.4550 275° West 431 496 36,000  Level FlightAware ADS-B
Sun 12:29:52 PM 45.7720 -58.5390 276° West 431 496 36,000  Level FlightAware ADS-B
Sun 12:30:27 PM 45.7790 -58.6440 275° West 430 495 36,000  Level FlightAware ADS-B
Sun 12:31:12 PM 45.7870 -58.7680 275° West 429 494 36,000  Level FlightAware ADS-B
Sun 12:31:42 PM 45.7920 -58.8540 275° West 429 494 36,000  Level FlightAware ADS-B
Sun 12:32:12 PM 45.7980 -58.9370 276° West 429 494 36,000  Level FlightAware ADS-B
Sun 12:33:07 PM 45.8070 -59.0890 275° West 429 494 36,000  Level FlightAware ADS-B
Sun 12:33:37 PM 45.8130 -59.1800 275° West 430 495 36,000  Level FlightAware ADS-B
Sun 12:34:17 PM 45.8200 -59.2940 275° West 430 495 36,000  Level FlightAware ADS-B
Sun 12:34:47 PM 45.8250 -59.3790 275° West 430 495 36,000  Level FlightAware ADS-B
Sun 12:35:27 PM 45.8310 -59.4920 274° West 430 495 36,000  Level FlightAware ADS-B
Sun 12:36:07 PM 45.8380 -59.6070 275° West 430 495 36,000  Level FlightAware ADS-B
Sun 12:36:42 PM 45.8430 -59.7000 274° West 431 496 36,000  Level FlightAware ADS-B
Sun 12:37:32 PM 45.8510 -59.8450 275° West 430 495 36,000  Level FlightAware ADS-B
Sun 12:38:02 PM 45.8560 -59.9290 275° West 430 495 36,000  Level FlightAware ADS-B
Sun 12:38:32 PM 45.8610 -60.0160 275° West 430 495 36,000  Level FlightAware ADS-B
Sun 12:39:17 PM 45.8670 -60.1460 274° West 431 496 36,000  Level FlightAware ADS-B
Sun 12:40:07 PM 45.8750 -60.2870 275° West 432 497 36,000  Level FlightAware ADS-B
Sun 12:40:47 PM 45.8810 -60.4010 274° West 433 498 36,000  Level FlightAware ADS-B
Sun 12:41:27 PM 45.8860 -60.5170 274° West 434 499 36,000  Level FlightAware ADS-B
Sun 12:41:57 PM 45.8900 -60.6030 274° West 435 501 36,000  Level FlightAware ADS-B
Sun 12:42:42 PM 45.8970 -60.7300 275° West 434 499 36,000  Level FlightAware ADS-B
Sun 12:43:17 PM 45.9010 -60.8280 273° West 434 499 36,000  Level FlightAware ADS-B
Sun 12:43:52 PM 45.9060 -60.9310 274° West 434 499 36,000  Level FlightAware ADS-B
Sun 12:44:42 PM 45.9120 -61.0750 273° West 434 499 36,000  Level FlightAware ADS-B
Sun 12:45:17 PM 45.9160 -61.1660 274° West 434 499 36,000  Level FlightAware ADS-B
Sun 12:46:02 PM 45.9220 -61.3030 274° West 434 499 36,000  Level FlightAware ADS-B
Sun 12:46:27 PM 45.9250 -61.3700 274° West 434 499 36,000  Level FlightAware ADS-B
Sun 12:47:12 PM 45.9290 -61.4900 273° West 434 499 36,000  Level FlightAware ADS-B
Sun 12:47:52 PM 45.9330 -61.5880 273° West 434 499 36,000  Level FlightAware ADS-B
Sun 12:48:32 PM 45.9360 -61.6860 273° West 434 499 36,000  Level FlightAware ADS-B
Sun 12:49:02 PM 45.9390 -61.7600 273° West 434 499 36,000  Level FlightAware ADS-B
Sun 12:49:42 PM 45.9430 -61.8580 273° West 434 499 36,000  Level FlightAware ADS-B
Sun 12:50:42 PM 45.9480 -62.0050 273° West 434 499 36,000  Level FlightAware ADS-B
Sun 12:55:42 PM 45.9750 -62.7400 273° West 434 499 36,000  Level FlightAware ADS-B
Sun 12:56:12 PM 45.9770 -62.8140 272° West 434 499 36,000  Level FlightAware ADS-B
Sun 01:00:02 PM 45.9980 -63.7180 272° West 433 498 36,000  Level FlightAware ADS-B
Sun 01:00:37 PM 45.9990 -63.8080 271° West 433 498 36,000  Level FlightAware ADS-B
Sun 01:01:07 PM 46.0020 -63.9090 272° West 433 498 36,000  Level FlightAware ADS-B
Sun 01:02:12 PM 46.0060 -64.0930 272° West 433 498 36,000  Level FlightAware ADS-B
Sun 01:02:52 PM 46.0080 -64.2090 271° West 432 497 36,000  Level FlightAware ADS-B
Sun 01:03:27 PM 46.0090 -64.3010 271° West 432 497 36,000  Level FlightAware ADS-B
Sun 01:04:07 PM 46.0110 -64.4290 271° West 433 498 36,000  Level FlightAware ADS-B
Sun 01:04:42 PM 46.0120 -64.5240 271° West 433 498 36,000  Level FlightAware ADS-B
Sun 01:05:17 PM 46.0140 -64.6290 272° West 434 499 36,000  Level FlightAware ADS-B
Sun 01:05:57 PM 46.0150 -64.7410 271° West 434 499 36,000  Level FlightAware ADS-B
Sun 01:06:32 PM 46.0160 -64.8380 271° West 435 501 36,000  Level FlightAware ADS-B
Sun 01:07:12 PM 46.0170 -64.9530 271° West 436 502 36,000  Level FlightAware ADS-B
Sun 01:07:47 PM 46.0170 -65.0440 270° West 436 502 36,000  Level FlightAware ADS-B
Sun 01:08:22 PM 46.0190 -65.1530 272° West 438 504 36,000  Level FlightAware ADS-B
Sun 01:08:57 PM 46.0200 -65.2590 271° West 438 504 36,000  Level FlightAware ADS-B
Sun 01:09:42 PM 46.0210 -65.3900 271° West 439 505 36,000  Level FlightAware ADS-B
Sun 01:10:17 PM 46.0220 -65.4930 271° West 439 505 36,000  Level FlightAware ADS-B
Sun 01:11:02 PM 46.0220 -65.6180 270° West 440 506 36,000  Level FlightAware ADS-B
Sun 01:11:32 PM 46.0230 -65.7140 271° West 441 507 36,000  Level FlightAware ADS-B
Sun 01:12:12 PM 46.0230 -65.8310 270° West 441 507 36,000  Level FlightAware ADS-B
Sun 01:12:52 PM 46.0230 -65.9430 270° West 442 509 36,000  Level FlightAware ADS-B
Sun 01:13:27 PM 46.0230 -66.0470 270° West 443 510 36,000  Level FlightAware ADS-B
Sun 01:14:12 PM 46.0230 -66.1800 270° West 444 511 36,000  Level FlightAware ADS-B
Sun 01:15:07 PM 46.0230 -66.3420 270° West 446 513 36,000  Level FlightAware ADS-B
Sun 01:15:47 PM 46.0230 -66.4620 270° West 447 514 36,000  Level FlightAware ADS-B
Sun 01:16:27 PM 46.0220 -66.5660 269° West 447 514 36,000  Level FlightAware ADS-B
Sun 01:16:57 PM 46.0220 -66.6630 270° West 448 516 36,000  Level FlightAware ADS-B
Sun 01:17:32 PM 46.0210 -66.7630 269° West 450 518 36,000  Level FlightAware ADS-B
Sun 01:18:12 PM 46.0210 -66.8950 270° West 452 520 36,000  Level FlightAware ADS-B
Sun 01:18:52 PM 46.0200 -67.0110 269° West 453 521 36,000  Level FlightAware ADS-B
Sun 01:19:37 PM 46.0190 -67.1490 269° West 454 522 36,000  Level FlightAware ADS-B
Sun 01:20:12 PM 46.0180 -67.2540 269° West 456 525 36,000  Level FlightAware ADS-B
Sun 01:20:52 PM 46.0160 -67.3770 269° West 458 527 36,000  Level FlightAware ADS-B
Sun 01:21:22 PM 46.0150 -67.4640 269° West 461 531 36,000  Level FlightAware ADS-B
Sun 01:22:07 PM 46.0140 -67.6050 269° West 462 532 36,000  Level FlightAware ADS-B
Sun 01:22:57 PM 46.0110 -67.7620 268° West 464 534 36,000  Level FlightAware ADS-B
Sun 01:23:32 PM 46.0100 -67.8690 269° West 465 535 36,000  Level FlightAware ADS-B
Sun 01:24:12 PM 46.0080 -67.9920 269° West 465 535 36,000  Level FlightAware ADS-B
Sun 01:24:47 PM 46.0060 -68.0990 268° West 465 535 36,000  Level FlightAware ADS-B
Sun 01:25:17 PM 46.0040 -68.1900 268° West 465 535 36,000  Level FlightAware ADS-B
Sun 01:25:52 PM 46.0020 -68.2900 268° West 466 536 36,000  Level FlightAware ADS-B
Sun 01:26:32 PM 46.0000 -68.4230 269° West 465 535 36,000  Level FlightAware ADS-B
Sun 01:27:12 PM 45.9970 -68.5450 268° West 464 534 36,000  Level FlightAware ADS-B
Sun 01:27:47 PM 45.9950 -68.6520 268° West 464 534 36,000  Level FlightAware ADS-B
Sun 01:28:27 PM 45.9920 -68.7740 268° West 465 535 36,000  Level FlightAware ADS-B
Sun 01:28:57 PM 45.9900 -68.8680 268° West 465 535 36,000  Level FlightAware ADS-B
Sun 01:29:27 PM 45.9880 -68.9610 268° West 465 535 36,000  Level FlightAware ADS-B
Sun 01:30:12 PM 45.9840 -69.1000 268° West 466 536 36,000  Level FlightAware ADS-B
Sun 01:30:42 PM 45.9820 -69.1910 268° West 467 537 36,000  Level FlightAware ADS-B
Sun 01:31:17 PM 45.9790 -69.3000 268° West 467 537 36,000  Level FlightAware ADS-B
Sun 01:31:57 PM 45.9750 -69.4230 267° West 467 537 36,000  Level FlightAware ADS-B
Sun 01:32:37 PM 45.9720 -69.5470 268° West 466 536 36,000  Level FlightAware ADS-B
Sun 01:33:17 PM 45.9680 -69.6700 267° West 465 535 36,000  Level FlightAware ADS-B
Sun 01:34:02 PM 45.9630 -69.8060 267° West 464 534 36,000  Level FlightAware ADS-B
Sun 01:34:52 PM 45.9580 -69.9600 267° West 463 533 36,000  Level FlightAware ADS-B
Sun 01:35:22 PM 45.9550 -70.0530 267° West 462 532 36,000  Level FlightAware ADS-B
Sun 01:35:52 PM 45.9520 -70.1440 267° West 462 532 36,000  Level FlightAware ADS-B
Sun 01:36:27 PM 45.9480 -70.2500 267° West 462 532 36,000  Level FlightAware ADS-B
Sun 01:37:02 PM 45.9440 -70.3570 267° West 461 531 36,000  Level FlightAware ADS-B
Sun 01:37:37 PM 45.9400 -70.4640 267° West 461 531 36,000  Level FlightAware ADS-B
Sun 01:38:32 PM 45.9340 -70.6320 267° West 460 529 36,000  Level FlightAware ADS-B
Sun 01:39:07 PM 45.9300 -70.7380 267° West 460 529 36,000 -185 Level FlightAware ADS-B
Sun 01:39:37 PM 45.9260 -70.8280 266° West 454 522 35,800 -880 Descending FlightAware ADS-B
Sun 01:40:22 PM 45.9160 -70.9610 264° West 443 510 34,900 -1,440 Descending FlightAware ADS-B
Sun 01:40:52 PM 45.9080 -71.0480 263° West 436 502 34,000 -1,938 Descending FlightAware ADS-B
Sun 01:41:27 PM 45.8990 -71.1470 263° West 429 494 32,800 -2,031 Descending FlightAware ADS-B
Sun 01:41:57 PM 45.8910 -71.2310 262° West 424 488 31,800 -2,031 Descending FlightAware ADS-B
Sun 01:42:32 PM 45.8830 -71.3270 263° West 418 481 30,600 -1,971 Descending FlightAware ADS-B
Sun 01:43:07 PM 45.8750 -71.4220 263° West 411 473 29,500 -1,846 Descending FlightAware ADS-B
Sun 01:43:37 PM 45.8680 -71.5010 263° West 404 465 28,600 -1,840 Descending FlightAware ADS-B
Sun 01:44:22 PM 45.8570 -71.6190 262° West 394 453 27,200 -1,835 Descending FlightAware ADS-B
Sun 01:45:02 PM 45.8470 -71.7220 262° West 386 444 26,000 -1,754 Descending FlightAware ADS-B
Sun 01:45:27 PM 45.8420 -71.7850 264° West 381 438 25,300 -1,725 Descending FlightAware ADS-B
Sun 01:46:22 PM 45.8290 -71.9200 262° West 371 427 23,700 -1,733 Descending FlightAware ADS-B
Sun 01:46:57 PM 45.8210 -72.0030 262° West 365 420 22,700 -1,662 Descending FlightAware ADS-B
Sun 01:47:27 PM 45.8140 -72.0750 262° West 361 415 21,900 -1,629 Descending FlightAware ADS-B
Sun 01:48:07 PM 45.8050 -72.1690 262° West 355 409 20,800 -1,694 Descending FlightAware ADS-B
Sun 01:48:52 PM 45.7950 -72.2720 262° West 349 402 19,500 -1,667 Descending FlightAware ADS-B
Sun 01:49:37 PM 45.7850 -72.3730 262° West 343 395 18,300 -1,800 Descending FlightAware ADS-B
Sun 01:50:12 PM 45.7770 -72.4520 262° West 345 397 17,100 -1,840 Descending FlightAware ADS-B
Sun 01:50:52 PM 45.7680 -72.5420 262° West 339 390 16,000 -1,680 Descending FlightAware ADS-B
Sun 01:51:27 PM 45.7610 -72.6170 262° West 335 386 15,000 -1,629 Descending FlightAware ADS-B
Sun 01:52:02 PM 45.7530 -72.6940 262° West 331 381 14,100 -1,662 Descending FlightAware ADS-B
Sun 01:52:32 PM 45.7460 -72.7610 262° West 328 377 13,200 -1,700 Descending FlightAware ADS-B
Sun 01:53:02 PM 45.7400 -72.8240 262° West 324 373 12,400 -1,543 Descending FlightAware ADS-B
Sun 01:53:42 PM 45.7310 -72.9070 261° West 319 367 11,400 -1,520 Descending FlightAware ADS-B
Sun 01:54:17 PM 45.7240 -72.9790 262° West 315 362 10,500 -1,500 Descending FlightAware ADS-B
Sun 01:54:42 PM 45.7180 -73.0320 261° West 307 353 9,900 -800 Descending FlightAware ADS-B
Sun 01:55:17 PM 45.7110 -73.0950 261° West 279 321 9,700 -545 Descending FlightAware ADS-B
Sun 01:55:37 PM 45.7060 -73.1330 259° West 274 315 9,400 -1,200 Descending FlightAware ADS-B
Sun 01:56:07 PM 45.6970 -73.1850 256° West 268 308 8,700 -1,569 Descending FlightAware ADS-B
Sun 01:56:42 PM 45.6850 -73.2450 254° West 262 302 7,700 -1,754 Descending FlightAware ADS-B
Sun 01:57:12 PM 45.6750 -73.2950 254° West 260 299 6,800 -1,800 Descending FlightAware ADS-B
Sun 01:57:42 PM 45.6650 -73.3450 254° West 260 299 5,900 -1,100 Descending FlightAware ADS-B
Sun 01:58:12 PM 45.6560 -73.3950 256° West 257 296 5,700 -764 Descending FlightAware ADS-B
Sun 01:58:37 PM 45.6480 -73.4320 253° West 243 280 5,200 -1,200 Descending FlightAware ADS-B
Sun 01:59:02 PM 45.6410 -73.4710 256° West 230 265 4,700 -1,333 Descending FlightAware ADS-B
Sun 01:59:22 PM 45.6350 -73.5000 254° West 225 259 4,200 -1,400 Descending FlightAware ADS-B
Sun 01:59:32 PM 45.6290 -73.5130 237° Southwest 218 251 4,000 -533 Descending FlightAware ADS-B
Sun 02:00:07 PM 45.6060 -73.5460 225° Southwest 205 236 3,800 -764 Descending FlightAware ADS-B
Sun 02:00:27 PM 45.5930 -73.5640 224° Southwest 208 239 3,300 -1,467 Descending FlightAware ADS-B
Sun 02:00:52 PM 45.5740 -73.5880 221° Southwest 207 238 2,700 -1,418 Descending FlightAware ADS-B
Sun 02:01:22 PM 45.5540 -73.6140 222° Southwest 197 227 2,000 -1,300 Descending FlightAware ADS-B
Sun 02:01:52 PM 45.5350 -73.6400 224° Southwest 175 201 1,400 -1,015 Descending FlightAware ADS-B
Sun 02:02:27 PM 45.5150 -73.6660 222° Southwest 161 185 900 -764 Descending FlightAware ADS-B
Sun 02:02:47 PM 45.5060 -73.6790 225° Southwest 147 169 700 -667 Descending FlightAware ADS-B
Sun 02:03:12 PM 45.4940 -73.6940 221° Southwest 147 169 400 -720 Descending FlightAware ADS-B
Sun 02:03:37 PM 45.4820 -73.7100 223° Southwest 146 168 100 -720 Descending FlightAware ADS-B

Login

Don't have an account? Register now (free) for customized features, flight alerts, and more!